KBTL/BTL METAR and TAF weather

Enter ICAO airport designator
Station Type Date Time Source
KBTL METAR 2019/10/21 04:53 UTC NOAA

KBTL 210453Z AUTO 00000KT 10SM SCT060 09/08 A2994 RMK AO2 SLP139 T00890083 402000089


Station Type Date Time Source
KBTL Decoded METAR 2019/10/21 04:53 UTC NOAA

W.K.KELLOGG REGIONAL AIRPORT, MI, United States (KBTL) 42-18N 085-15W 290M
Oct 21, 2019 - 12:53 AM EDT / 2019.10.21 0453 UTC
Wind: Calm:0
Visibility: 10 mile(s):0
Sky conditions: partly cloudy
Temperature: 48.0 F (8.9 C)
Dew Point: 46.9 F (8.3 C)
Relative Humidity: 96%
Pressure (altimeter): 29.94 in. Hg (1013 hPa)
ob: KBTL 210453Z AUTO 00000KT 10SM SCT060 09/08 A2994 RMK AO2 SLP139 T00890083 402000089
cycle: 5

Station Type Date Time Source
KBTL TAF 2019/10/20 18:42 UTC NOAA

TAF KBTL 201740Z 2018/2118 31005KT P6SM SCT080
FM202100 30004KT P6SM SCT025
FM210500 VRB04KT P6SM BKN120
FM211400 14014KT P6SM OVC025

Example: see airport list